createdAt,value
2023-05-10T00:01:57.357Z,17.50
2023-05-10T00:04:24.594Z,17.60
2023-05-10T00:06:51.485Z,17.40
2023-05-10T00:09:18.499Z,17.30
2023-05-10T00:11:45.464Z,17.40
2023-05-10T00:14:12.870Z,17.20
2023-05-10T00:16:42.978Z,17.10
2023-05-10T00:19:09.916Z,17.20
2023-05-10T00:21:42.601Z,17.10
2023-05-10T00:24:09.485Z,17.10
2023-05-10T00:26:36.409Z,17.10
2023-05-10T00:29:03.374Z,16.70
2023-05-10T00:31:30.366Z,16.90
2023-05-10T00:33:57.247Z,16.80
2023-05-10T00:36:24.341Z,16.70
2023-05-10T00:38:51.283Z,16.60
2023-05-10T00:41:18.200Z,16.80
2023-05-10T00:43:45.127Z,16.60
2023-05-10T00:46:12.122Z,16.60
2023-05-10T00:48:39.077Z,16.40
2023-05-10T00:51:06.060Z,16.10
2023-05-10T00:53:33.097Z,16.30
2023-05-10T00:56:00.609Z,16.20
2023-05-10T00:58:28.034Z,16.40
2023-05-10T01:00:56.199Z,16.20
2023-05-10T01:03:23.236Z,16.20
2023-05-10T01:05:50.297Z,16.20
2023-05-10T01:08:17.207Z,16.30
2023-05-10T01:10:44.337Z,16.30
2023-05-10T01:13:11.420Z,16.30
2023-05-10T01:15:38.395Z,16.40
2023-05-10T01:18:11.784Z,16.30
2023-05-10T01:20:42.346Z,16.10
2023-05-10T01:23:23.246Z,16.10
2023-05-10T01:26:42.998Z,16.10
2023-05-10T01:29:47.404Z,16.00
2023-05-10T01:33:02.522Z,16.10
2023-05-10T01:36:03.551Z,16.00
2023-05-10T01:38:43.388Z,15.90
2023-05-10T01:41:17.576Z,15.80
2023-05-10T01:44:25.824Z,15.70
2023-05-10T01:47:07.293Z,16.00
2023-05-10T01:49:40.479Z,15.90
2023-05-10T01:52:13.008Z,15.80
2023-05-10T01:54:47.548Z,15.70
2023-05-10T01:57:14.404Z,15.80
2023-05-10T01:59:41.302Z,15.80
2023-05-10T02:02:08.826Z,15.90
2023-05-10T02:04:36.689Z,15.80
2023-05-10T02:07:03.577Z,15.70
2023-05-10T02:09:30.509Z,15.90
2023-05-10T02:11:57.536Z,15.90
2023-05-10T02:14:24.489Z,15.90
2023-05-10T02:16:52.063Z,15.80
2023-05-10T02:19:19.027Z,15.90
2023-05-10T02:21:45.958Z,15.70
2023-05-10T02:24:12.843Z,15.70
2023-05-10T02:26:39.883Z,15.60
2023-05-10T02:29:06.782Z,15.80
2023-05-10T02:31:34.022Z,15.70
2023-05-10T02:34:00.947Z,15.70
2023-05-10T02:36:28.109Z,15.80
2023-05-10T02:38:55.032Z,15.70
2023-05-10T02:41:22.803Z,15.60
2023-05-10T02:43:51.890Z,15.80
2023-05-10T02:46:19.029Z,15.60
2023-05-10T02:48:45.914Z,15.70
2023-05-10T02:51:13.322Z,15.70
2023-05-10T02:53:42.038Z,15.70
2023-05-10T02:56:35.545Z,15.70
2023-05-10T02:59:02.490Z,15.50
2023-05-10T03:01:29.414Z,15.70
2023-05-10T03:03:56.313Z,15.70
2023-05-10T03:06:23.241Z,15.60
2023-05-10T03:08:50.141Z,15.60
2023-05-10T03:11:47.863Z,15.80
2023-05-10T03:14:39.626Z,15.80
2023-05-10T03:17:37.008Z,15.80
2023-05-10T03:20:26.937Z,15.40
2023-05-10T03:23:01.043Z,15.50
2023-05-10T03:25:28.044Z,15.30
2023-05-10T03:27:54.916Z,15.40
2023-05-10T03:30:21.800Z,15.20
2023-05-10T03:32:48.790Z,15.30
2023-05-10T03:35:15.748Z,15.20
2023-05-10T03:37:42.661Z,15.30
2023-05-10T03:40:09.953Z,15.20
2023-05-10T03:42:36.837Z,15.30
2023-05-10T03:45:03.861Z,15.20
2023-05-10T03:47:30.907Z,15.40
2023-05-10T03:49:57.931Z,15.50
2023-05-10T03:52:24.841Z,15.40
2023-05-10T03:54:51.698Z,15.60
2023-05-10T03:57:18.621Z,15.70
2023-05-10T03:59:45.549Z,15.60
2023-05-10T04:02:12.424Z,15.50
2023-05-10T04:04:39.324Z,15.40
2023-05-10T04:07:06.265Z,15.40
2023-05-10T04:09:33.188Z,15.40
2023-05-10T04:12:00.379Z,15.50
2023-05-10T04:14:27.257Z,15.50
2023-05-10T04:16:54.172Z,15.60
2023-05-10T04:19:21.378Z,15.40
2023-05-10T04:21:48.315Z,15.60
2023-05-10T04:24:15.206Z,15.60
2023-05-10T04:26:42.160Z,15.80
2023-05-10T04:29:09.050Z,15.80
2023-05-10T04:31:35.943Z,15.70
2023-05-10T04:34:02.849Z,15.70
2023-05-10T04:36:29.718Z,15.60
2023-05-10T04:38:56.599Z,15.40
2023-05-10T04:41:23.465Z,15.40
2023-05-10T04:43:50.307Z,15.20
2023-05-10T04:46:17.255Z,15.30
2023-05-10T04:48:44.192Z,15.40
2023-05-10T04:51:11.110Z,15.50
2023-05-10T04:53:38.007Z,15.30
2023-05-10T04:56:05.395Z,15.40
2023-05-10T04:58:32.228Z,15.30
2023-05-10T05:01:05.953Z,15.40
2023-05-10T05:03:32.912Z,15.50
2023-05-10T05:05:59.978Z,15.60
2023-05-10T05:08:26.851Z,15.50
2023-05-10T05:10:53.756Z,15.40
2023-05-10T05:13:20.733Z,15.50
2023-05-10T05:15:47.685Z,15.40
2023-05-10T05:18:14.624Z,15.40
2023-05-10T05:20:43.862Z,15.40
2023-05-10T05:23:10.779Z,15.60
2023-05-10T05:25:37.769Z,15.60
2023-05-10T05:28:04.924Z,15.60
2023-05-10T05:30:31.780Z,15.30
2023-05-10T05:32:58.733Z,15.40
2023-05-10T05:35:25.803Z,15.20
2023-05-10T05:37:52.668Z,15.20
2023-05-10T05:40:19.524Z,15.20
2023-05-10T05:42:46.436Z,15.60
2023-05-10T05:45:13.334Z,15.60
2023-05-10T05:47:41.545Z,15.40
2023-05-10T05:50:08.935Z,15.40
2023-05-10T05:52:35.801Z,15.40
2023-05-10T05:55:02.863Z,15.50
2023-05-10T05:57:30.136Z,15.70
2023-05-10T05:59:57.024Z,15.90
2023-05-10T06:02:23.987Z,15.80
2023-05-10T06:04:51.290Z,15.80
2023-05-10T06:07:18.324Z,15.80
2023-05-10T06:09:45.219Z,15.70
2023-05-10T06:12:12.142Z,15.80
2023-05-10T06:14:39.054Z,15.90
2023-05-10T06:17:06.473Z,16.00
2023-05-10T06:19:33.401Z,16.10
2023-05-10T06:22:00.340Z,16.00
2023-05-10T06:24:27.220Z,16.00
2023-05-10T06:26:54.117Z,16.00
2023-05-10T06:29:21.014Z,16.00
2023-05-10T06:31:48.005Z,16.10
2023-05-10T06:34:15.029Z,16.20
2023-05-10T06:36:42.268Z,16.20
2023-05-10T06:39:09.135Z,16.10
2023-05-10T06:41:36.031Z,16.00
2023-05-10T06:44:02.945Z,16.20
2023-05-10T06:46:29.852Z,16.40
2023-05-10T06:48:56.749Z,16.70
2023-05-10T06:51:23.607Z,16.30
2023-05-10T06:53:51.206Z,16.70
2023-05-10T06:56:18.067Z,17.00
2023-05-10T06:58:45.017Z,16.90
2023-05-10T07:01:12.028Z,17.10
2023-05-10T07:03:39.021Z,17.20
2023-05-10T07:06:06.172Z,16.90
2023-05-10T07:08:33.125Z,16.90
2023-05-10T07:11:04.650Z,17.20
2023-05-10T07:13:35.229Z,17.40
2023-05-10T07:16:02.113Z,17.80
2023-05-10T07:18:29.189Z,17.90
2023-05-10T07:20:56.202Z,18.00
2023-05-10T07:23:23.112Z,17.90
2023-05-10T07:25:50.775Z,17.90
2023-05-10T07:28:17.687Z,17.90
2023-05-10T07:30:44.637Z,17.60
2023-05-10T07:33:13.595Z,17.50
2023-05-10T07:35:40.688Z,17.40
2023-05-10T07:38:07.560Z,17.50
2023-05-10T07:40:34.555Z,17.40
2023-05-10T07:43:01.539Z,17.50
2023-05-10T07:45:28.955Z,17.60
2023-05-10T07:47:55.967Z,17.70
2023-05-10T07:50:22.898Z,17.40
2023-05-10T07:52:49.751Z,17.50
2023-05-10T07:55:16.828Z,17.50
2023-05-10T07:57:43.950Z,17.60
2023-05-10T08:00:13.846Z,17.40
2023-05-10T08:02:40.823Z,17.60
2023-05-10T08:05:08.273Z,17.50
2023-05-10T08:07:35.159Z,17.40
2023-05-10T08:10:03.181Z,17.50
2023-05-10T08:12:30.129Z,17.40
2023-05-10T08:14:57.214Z,17.30
2023-05-10T08:17:24.757Z,17.30
2023-05-10T08:19:51.843Z,17.50
2023-05-10T08:22:18.754Z,17.70
2023-05-10T08:24:45.597Z,17.70
2023-05-10T08:27:12.464Z,17.70
2023-05-10T08:29:49.624Z,17.70
2023-05-10T08:32:18.224Z,17.70
2023-05-10T08:34:45.174Z,17.60
2023-05-10T08:37:12.115Z,17.60
2023-05-10T08:39:39.007Z,17.60
2023-05-10T08:42:06.326Z,17.80
2023-05-10T08:44:36.715Z,17.70
2023-05-10T08:47:06.339Z,17.70
2023-05-10T08:49:33.610Z,17.80
2023-05-10T08:52:03.643Z,17.90
2023-05-10T08:54:32.356Z,18.10
2023-05-10T08:56:59.264Z,18.20
2023-05-10T08:59:26.243Z,18.20
2023-05-10T09:01:53.161Z,18.40
2023-05-10T09:04:20.553Z,18.40
2023-05-10T09:06:47.581Z,18.30
2023-05-10T09:09:14.750Z,18.50
2023-05-10T09:11:41.693Z,18.40
2023-05-10T09:14:08.586Z,18.40
2023-05-10T09:16:35.527Z,18.50
2023-05-10T09:19:02.523Z,18.50
2023-05-10T09:21:29.520Z,18.60
2023-05-10T09:23:56.391Z,18.70
2023-05-10T09:26:24.314Z,18.50
2023-05-10T09:28:59.419Z,18.80
2023-05-10T09:31:43.781Z,19.00
2023-05-10T09:34:10.699Z,18.90
2023-05-10T09:36:37.639Z,19.50
2023-05-10T09:39:04.585Z,19.90
2023-05-10T09:41:31.481Z,20.00
2023-05-10T09:43:58.386Z,20.40
2023-05-10T09:46:25.352Z,20.50
2023-05-10T09:48:52.254Z,21.10
2023-05-10T09:51:25.719Z,21.30
2023-05-10T09:54:16.974Z,21.30
2023-05-10T09:56:43.985Z,20.70
2023-05-10T09:59:12.726Z,20.50
2023-05-10T10:01:39.977Z,20.30
2023-05-10T10:04:08.348Z,20.20
2023-05-10T10:06:39.717Z,20.30
2023-05-10T10:09:07.689Z,20.90
2023-05-10T10:11:37.124Z,21.30
2023-05-10T10:14:04.084Z,21.50
2023-05-10T10:16:31.401Z,21.80
2023-05-10T10:18:58.511Z,21.60
2023-05-10T10:21:25.543Z,21.20
2023-05-10T10:23:52.771Z,21.20
2023-05-10T10:26:19.881Z,21.20
2023-05-10T10:29:22.794Z,20.90
2023-05-10T10:32:19.365Z,20.80
2023-05-10T10:34:47.457Z,20.90
2023-05-10T10:37:14.353Z,21.00
2023-05-10T10:39:41.245Z,20.50
2023-05-10T10:42:08.123Z,20.60
2023-05-10T10:44:37.572Z,20.80
2023-05-10T10:47:04.410Z,20.90
2023-05-10T10:49:40.761Z,21.00
2023-05-10T10:52:27.561Z,21.30
2023-05-10T10:55:15.819Z,21.80
2023-05-10T10:57:54.087Z,21.90
2023-05-10T11:00:27.748Z,22.00
2023-05-10T11:03:00.416Z,22.10
2023-05-10T11:05:43.093Z,22.30
2023-05-10T11:08:28.671Z,22.00
2023-05-10T11:11:01.514Z,22.00
2023-05-10T11:13:42.179Z,22.70
2023-05-10T11:16:23.492Z,23.00
2023-05-10T11:19:11.963Z,23.10
2023-05-10T11:22:12.167Z,22.80
2023-05-10T11:24:39.053Z,23.20
2023-05-10T11:27:06.896Z,22.90
2023-05-10T11:29:33.798Z,22.30
2023-05-10T11:32:00.746Z,22.70
2023-05-10T11:34:30.047Z,22.50
2023-05-10T11:36:57.258Z,22.60
2023-05-10T11:39:31.463Z,22.00
2023-05-10T11:41:58.793Z,21.90
2023-05-10T11:44:31.750Z,21.90
2023-05-10T11:47:02.479Z,22.00
2023-05-10T11:49:29.434Z,22.60
2023-05-10T11:52:06.637Z,22.60
2023-05-10T11:54:33.551Z,22.80
2023-05-10T11:57:00.469Z,22.50
2023-05-10T11:59:27.366Z,22.80
2023-05-10T12:01:54.342Z,22.70
2023-05-10T12:04:21.505Z,22.70
2023-05-10T12:06:48.497Z,22.40
2023-05-10T12:09:15.471Z,22.70
2023-05-10T12:11:44.265Z,22.90
2023-05-10T12:14:11.568Z,22.80
2023-05-10T12:16:38.608Z,21.70
2023-05-10T12:19:05.655Z,21.50
2023-05-10T12:21:32.720Z,21.20
2023-05-10T12:24:04.183Z,21.00
2023-05-10T12:26:31.239Z,21.20
2023-05-10T12:29:19.044Z,20.80
2023-05-10T12:31:58.349Z,20.90
2023-05-10T12:34:27.050Z,21.10
2023-05-10T12:36:54.628Z,21.10
2023-05-10T12:39:21.567Z,21.20
2023-05-10T12:41:48.493Z,21.40
2023-05-10T12:44:15.605Z,21.80
2023-05-10T12:46:42.460Z,21.60
2023-05-10T12:49:09.858Z,21.40
2023-05-10T12:51:36.942Z,21.40
2023-05-10T12:54:04.325Z,21.70
2023-05-10T12:56:31.186Z,21.70
2023-05-10T12:58:58.056Z,21.70
2023-05-10T13:01:24.946Z,21.20
2023-05-10T13:03:51.862Z,21.10
2023-05-10T13:06:18.759Z,21.00
2023-05-10T13:08:45.613Z,20.80
2023-05-10T13:11:12.465Z,20.80
2023-05-10T13:13:39.339Z,20.90
2023-05-10T13:16:06.753Z,21.20
2023-05-10T13:18:33.783Z,21.40
2023-05-10T13:21:00.649Z,21.30
2023-05-10T13:23:27.541Z,20.80
2023-05-10T13:25:54.378Z,20.70
2023-05-10T13:28:21.260Z,20.70
2023-05-10T13:30:48.163Z,21.20
2023-05-10T13:33:15.043Z,21.30
2023-05-10T13:35:41.989Z,21.60
2023-05-10T13:38:09.065Z,21.70
2023-05-10T13:40:36.011Z,21.30
2023-05-10T13:43:02.879Z,21.20
2023-05-10T13:45:29.766Z,21.40
2023-05-10T13:47:56.671Z,21.30
2023-05-10T13:50:23.563Z,21.10
2023-05-10T13:52:50.439Z,21.10
2023-05-10T13:55:17.577Z,20.80
2023-05-10T13:57:44.656Z,20.70
2023-05-10T14:00:12.584Z,21.00
2023-05-10T14:02:39.502Z,21.10
2023-05-10T14:05:06.975Z,21.10
2023-05-10T14:07:33.856Z,20.90
2023-05-10T14:10:01.217Z,21.30
2023-05-10T14:12:28.529Z,20.90
2023-05-10T14:14:55.413Z,21.00
2023-05-10T14:17:22.276Z,21.10
2023-05-10T14:19:49.139Z,21.50
2023-05-10T14:22:16.023Z,21.40
2023-05-10T14:24:42.885Z,21.50
2023-05-10T14:27:09.791Z,21.70
2023-05-10T14:29:36.638Z,21.70
2023-05-10T14:32:03.611Z,21.90
2023-05-10T14:34:30.463Z,22.10
2023-05-10T14:36:57.394Z,21.70
2023-05-10T14:39:24.287Z,21.60
2023-05-10T14:41:51.199Z,21.70
2023-05-10T14:44:18.096Z,21.50
2023-05-10T14:46:44.997Z,21.10
2023-05-10T14:49:11.848Z,21.20
2023-05-10T14:51:38.730Z,21.70
2023-05-10T14:54:05.627Z,22.20
2023-05-10T14:56:32.924Z,22.40
2023-05-10T14:58:59.789Z,22.70
2023-05-10T15:01:27.381Z,22.40
2023-05-10T15:03:54.794Z,22.70
2023-05-10T15:06:33.043Z,22.90
2023-05-10T15:08:59.933Z,23.10
2023-05-10T15:11:26.998Z,22.70
2023-05-10T15:13:54.193Z,22.00
2023-05-10T15:16:21.138Z,21.70
2023-05-10T15:18:48.101Z,21.70
2023-05-10T15:21:14.979Z,21.30
2023-05-10T15:23:41.814Z,21.00
2023-05-10T15:26:08.675Z,21.00
2023-05-10T15:28:35.595Z,20.90
2023-05-10T15:31:02.432Z,20.80
2023-05-10T15:33:29.580Z,21.00
2023-05-10T15:35:56.430Z,20.80
2023-05-10T15:38:23.328Z,20.60
2023-05-10T15:40:50.211Z,20.50
2023-05-10T15:43:17.236Z,20.40
2023-05-10T15:45:44.114Z,20.60
2023-05-10T15:48:10.973Z,20.60
2023-05-10T15:50:37.839Z,20.60
2023-05-10T15:53:04.703Z,20.60
2023-05-10T15:55:31.612Z,20.70
2023-05-10T15:57:58.529Z,20.60
2023-05-10T16:00:25.408Z,20.50
2023-05-10T16:02:53.078Z,20.40
2023-05-10T16:05:20.283Z,20.30
2023-05-10T16:07:47.271Z,20.70
2023-05-10T16:10:14.132Z,20.50
2023-05-10T16:12:41.036Z,20.70
2023-05-10T16:15:08.997Z,20.90
2023-05-10T16:17:35.987Z,20.90
2023-05-10T16:20:03.064Z,21.00
2023-05-10T16:22:30.127Z,21.20
2023-05-10T16:24:57.794Z,20.80
2023-05-10T16:27:24.822Z,20.70
2023-05-10T16:29:51.703Z,20.80
2023-05-10T16:32:18.732Z,20.70
2023-05-10T16:34:45.822Z,20.50
2023-05-10T16:37:12.874Z,20.40
2023-05-10T16:39:39.824Z,20.10
2023-05-10T16:42:06.699Z,20.00
2023-05-10T16:44:33.654Z,20.20
2023-05-10T16:47:00.544Z,20.20
2023-05-10T16:49:27.435Z,20.00
2023-05-10T16:51:54.425Z,20.00
2023-05-10T16:54:21.599Z,19.90
2023-05-10T16:56:48.533Z,19.90
2023-05-10T16:59:15.453Z,19.90
2023-05-10T17:01:42.332Z,20.00
2023-05-10T17:04:09.335Z,20.10
2023-05-10T17:06:36.607Z,19.90
2023-05-10T17:09:03.546Z,19.70
2023-05-10T17:11:30.466Z,19.70
2023-05-10T17:13:58.984Z,19.70
2023-05-10T17:16:25.900Z,19.80
2023-05-10T17:18:53.000Z,19.80
2023-05-10T17:21:19.948Z,19.80
2023-05-10T17:23:46.930Z,19.50
2023-05-10T17:26:13.988Z,19.50
2023-05-10T17:28:41.006Z,19.40
2023-05-10T17:31:08.052Z,19.40
2023-05-10T17:33:34.985Z,19.30
2023-05-10T17:36:02.008Z,19.40
2023-05-10T17:38:29.001Z,19.50
2023-05-10T17:40:55.986Z,19.50
2023-05-10T17:43:23.150Z,19.40
2023-05-10T17:45:50.484Z,19.20
2023-05-10T17:48:17.556Z,19.20
2023-05-10T17:50:44.761Z,19.00
2023-05-10T17:53:11.691Z,19.00
2023-05-10T17:55:41.956Z,19.00
2023-05-10T17:58:10.876Z,19.00
2023-05-10T18:00:38.272Z,18.90
2023-05-10T18:03:05.704Z,18.90
2023-05-10T18:05:36.813Z,19.00
2023-05-10T18:08:04.892Z,18.80
2023-05-10T18:10:32.616Z,18.80
2023-05-10T18:12:59.639Z,18.80
2023-05-10T18:15:27.144Z,18.90
2023-05-10T18:17:54.166Z,19.00
2023-05-10T18:20:21.223Z,18.90
2023-05-10T18:22:48.177Z,18.90
2023-05-10T18:25:15.395Z,18.90
2023-05-10T18:27:42.462Z,18.90
2023-05-10T18:30:09.918Z,18.90
2023-05-10T18:32:36.896Z,18.90
2023-05-10T18:35:04.082Z,18.90
2023-05-10T18:37:31.088Z,18.90
2023-05-10T18:39:58.114Z,18.70
2023-05-10T18:42:25.169Z,18.60
2023-05-10T18:44:52.098Z,18.50
2023-05-10T18:47:19.085Z,18.20
2023-05-10T18:49:45.971Z,18.20
2023-05-10T18:52:12.966Z,18.30
2023-05-10T18:54:39.927Z,18.20
2023-05-10T18:57:06.855Z,18.30
2023-05-10T18:59:34.087Z,18.10
2023-05-10T19:02:01.029Z,18.10
2023-05-10T19:04:28.051Z,18.00
2023-05-10T19:06:55.017Z,18.00
2023-05-10T19:09:22.373Z,18.00
2023-05-10T19:11:49.289Z,17.90
2023-05-10T19:14:16.319Z,17.90
2023-05-10T19:16:43.229Z,17.80
2023-05-10T19:19:10.369Z,17.80
2023-05-10T19:21:37.933Z,17.80
2023-05-10T19:24:05.574Z,17.80
2023-05-10T19:26:32.510Z,17.90
2023-05-10T19:28:59.484Z,17.80
2023-05-10T19:31:26.428Z,17.90
2023-05-10T19:33:53.430Z,17.90
2023-05-10T19:36:20.841Z,17.70
2023-05-10T19:38:47.880Z,17.70
2023-05-10T19:41:14.994Z,17.60
2023-05-10T19:44:10.809Z,17.60
2023-05-10T19:46:40.128Z,17.60
2023-05-10T19:49:12.858Z,17.50
2023-05-10T19:51:39.961Z,17.40
2023-05-10T19:54:14.618Z,17.20
2023-05-10T19:56:41.657Z,17.20
2023-05-10T19:59:08.709Z,17.20
2023-05-10T20:01:35.813Z,17.20
2023-05-10T20:04:02.955Z,17.20
2023-05-10T20:06:29.930Z,17.30
2023-05-10T20:08:57.069Z,17.30
2023-05-10T20:11:24.143Z,17.20
2023-05-10T20:13:51.265Z,17.20
2023-05-10T20:16:18.407Z,17.20
2023-05-10T20:18:45.576Z,17.20
2023-05-10T20:21:12.755Z,17.10
2023-05-10T20:23:39.985Z,17.20
2023-05-10T20:26:07.059Z,17.00
2023-05-10T20:28:34.134Z,16.90
2023-05-10T20:31:01.246Z,16.80
2023-05-10T20:33:28.325Z,16.70
2023-05-10T20:35:55.535Z,16.90
2023-05-10T20:38:22.617Z,16.90
2023-05-10T20:40:49.726Z,16.90
2023-05-10T20:43:16.813Z,16.80
2023-05-10T20:45:43.861Z,16.90
2023-05-10T20:48:10.952Z,16.80
2023-05-10T20:50:38.108Z,16.70
2023-05-10T20:53:05.085Z,16.50
2023-05-10T20:55:32.105Z,16.60
2023-05-10T20:57:59.106Z,16.70
2023-05-10T21:00:26.410Z,16.60
2023-05-10T21:02:53.512Z,16.50
2023-05-10T21:05:24.358Z,16.40
2023-05-10T21:07:51.665Z,16.60
2023-05-10T21:10:19.091Z,16.60
2023-05-10T21:12:46.238Z,16.70
2023-05-10T21:15:13.197Z,16.60
2023-05-10T21:17:40.250Z,16.70
2023-05-10T21:20:08.317Z,16.70
2023-05-10T21:22:35.410Z,16.50
2023-05-10T21:25:02.448Z,16.60
2023-05-10T21:27:29.392Z,16.70
2023-05-10T21:29:56.419Z,16.60
2023-05-10T21:32:23.440Z,16.60
2023-05-10T21:34:50.489Z,16.40
2023-05-10T21:37:17.590Z,16.50
2023-05-10T21:39:44.879Z,16.40
2023-05-10T21:42:11.958Z,16.40
2023-05-10T21:44:38.946Z,16.40
2023-05-10T21:47:05.990Z,16.50
2023-05-10T21:49:33.073Z,16.30
2023-05-10T21:52:00.141Z,16.20
2023-05-10T21:54:27.592Z,16.20
2023-05-10T21:56:54.590Z,16.20
2023-05-10T21:59:21.574Z,16.10
2023-05-10T22:01:48.853Z,16.00
2023-05-10T22:04:16.000Z,16.10
2023-05-10T22:06:43.005Z,16.10
2023-05-10T22:09:10.112Z,16.10
2023-05-10T22:11:37.210Z,16.10
2023-05-10T22:14:04.409Z,16.00
2023-05-10T22:16:31.444Z,16.20
2023-05-10T22:18:58.619Z,16.10
2023-05-10T22:21:25.842Z,16.20
2023-05-10T22:23:52.955Z,16.40
2023-05-10T22:26:20.153Z,16.30
2023-05-10T22:28:47.536Z,16.10
2023-05-10T22:31:14.828Z,16.20
2023-05-10T22:33:42.120Z,16.10
2023-05-10T22:36:09.663Z,16.20
2023-05-10T22:38:36.687Z,16.10
2023-05-10T22:41:03.698Z,16.10
2023-05-10T22:43:30.765Z,16.10
2023-05-10T22:45:57.789Z,16.00
2023-05-10T22:48:25.151Z,15.90
2023-05-10T22:50:52.201Z,15.80
2023-05-10T22:53:19.264Z,15.80
2023-05-10T22:55:46.371Z,15.80
2023-05-10T22:58:13.580Z,15.70
2023-05-10T23:00:40.509Z,15.70
2023-05-10T23:03:07.519Z,15.50
2023-05-10T23:05:34.729Z,15.50
2023-05-10T23:08:01.853Z,15.50
2023-05-10T23:10:29.021Z,15.40
2023-05-10T23:12:56.093Z,15.50
2023-05-10T23:15:23.423Z,15.40
2023-05-10T23:17:50.606Z,15.20
2023-05-10T23:20:17.858Z,15.20
2023-05-10T23:22:45.158Z,15.00
2023-05-10T23:25:12.189Z,14.90
2023-05-10T23:27:39.161Z,14.80
2023-05-10T23:30:07.213Z,14.80
2023-05-10T23:32:34.321Z,14.80
2023-05-10T23:35:01.442Z,14.90
2023-05-10T23:37:28.563Z,14.80
2023-05-10T23:39:56.046Z,14.70
2023-05-10T23:42:23.207Z,14.70
2023-05-10T23:44:51.382Z,14.50
2023-05-10T23:47:18.463Z,14.40
2023-05-10T23:49:45.498Z,14.30
2023-05-10T23:52:12.479Z,14.20
2023-05-10T23:54:39.609Z,14.10
2023-05-10T23:57:06.785Z,14.00
2023-05-10T23:59:33.771Z,14.00
